EWG43E EKCH-LOWI
Flight info
| Callsign | EWG43E |
|---|---|
| Flight time | 1h 56m |
| Altitude | 36000 |
| Route | SALLO M44 KOGIM M602 USEDU DCT ADLIR DCT OSKAN DCT MAREM DCT RUDAP P31 DOSEL M736 TULSI TULSI3A |
| Aircraft | A320/M-SDE3FGHIRWY/LB1 |
Departure
| Time | 2026-05-06 10:30 |
|---|---|
| Airport | Copenhagen Kastrup Airport (EKCH) |
Arrival
| Time | 2026-05-06 12:26 |
|---|---|
| Airport | Innsbruck Airport (LOWI) |
| Time | Latitude | Longitude | Altitude | Speed | Heading |
|---|---|---|---|---|---|
| 2026-05-06 10:05 | 55.62779 | 12.64174 | 22 ft | 0 kts | 136° |
| 2026-05-06 10:18 | 55.62781 | 12.64171 | 22 ft | 2 kts | 136° |
| 2026-05-06 10:18 | 55.62800 | 12.64139 | 22 ft | 4 kts | 136° |
| 2026-05-06 10:18 | 55.62819 | 12.64107 | 21 ft | 4 kts | 136° |
| 2026-05-06 10:19 | 55.62832 | 12.64085 | 24 ft | 2 kts | 136° |
| 2026-05-06 10:22 | 55.62827 | 12.64078 | 24 ft | 2 kts | 214° |
| 2026-05-06 10:22 | 55.62817 | 12.64021 | 23 ft | 8 kts | 247° |
| 2026-05-06 10:22 | 55.62786 | 12.63969 | 23 ft | 5 kts | 211° |
| 2026-05-06 10:22 | 55.62744 | 12.63924 | 23 ft | 8 kts | 212° |
| 2026-05-06 10:23 | 55.62694 | 12.63867 | 24 ft | 11 kts | 214° |
| 2026-05-06 10:23 | 55.62631 | 12.63798 | 26 ft | 12 kts | 206° |
| 2026-05-06 10:23 | 55.62505 | 12.63782 | 21 ft | 23 kts | 163° |
| 2026-05-06 10:23 | 55.62393 | 12.63994 | 19 ft | 25 kts | 123° |
| 2026-05-06 10:24 | 55.62316 | 12.64193 | 15 ft | 18 kts | 126° |
| 2026-05-06 10:24 | 55.62247 | 12.64380 | 18 ft | 19 kts | 123° |
| 2026-05-06 10:24 | 55.62169 | 12.64583 | 21 ft | 22 kts | 123° |
| 2026-05-06 10:24 | 55.62092 | 12.64800 | 21 ft | 15 kts | 122° |
| 2026-05-06 10:25 | 55.62032 | 12.64935 | 23 ft | 13 kts | 144° |
| 2026-05-06 10:25 | 55.61947 | 12.64877 | 18 ft | 17 kts | 213° |
| 2026-05-06 10:25 | 55.61851 | 12.64769 | 21 ft | 16 kts | 212° |
| 2026-05-06 10:25 | 55.61756 | 12.64658 | 21 ft | 18 kts | 212° |
| 2026-05-06 10:26 | 55.61651 | 12.64535 | 23 ft | 16 kts | 213° |
| 2026-05-06 10:26 | 55.61555 | 12.64427 | 23 ft | 19 kts | 213° |
| 2026-05-06 10:26 | 55.61427 | 12.64282 | 21 ft | 25 kts | 213° |
| 2026-05-06 10:26 | 55.61280 | 12.64109 | 19 ft | 25 kts | 213° |
| 2026-05-06 10:27 | 55.61133 | 12.63940 | 20 ft | 24 kts | 213° |
| 2026-05-06 10:27 | 55.60996 | 12.63781 | 21 ft | 22 kts | 213° |
| 2026-05-06 10:27 | 55.60872 | 12.63641 | 23 ft | 21 kts | 213° |
| 2026-05-06 10:27 | 55.60749 | 12.63500 | 19 ft | 24 kts | 213° |
| 2026-05-06 10:28 | 55.60613 | 12.63329 | 19 ft | 23 kts | 220° |
| 2026-05-06 10:28 | 55.60516 | 12.63179 | 21 ft | 11 kts | 221° |
| 2026-05-06 10:28 | 55.60459 | 12.63109 | 22 ft | 11 kts | 195° |
| 2026-05-06 10:28 | 55.60390 | 12.63176 | 22 ft | 11 kts | 124° |
| 2026-05-06 10:29 | 55.60350 | 12.63269 | 25 ft | 7 kts | 128° |
| 2026-05-06 10:29 | 55.60339 | 12.63347 | 28 ft | 6 kts | 64° |
| 2026-05-06 10:29 | 55.60389 | 12.63432 | 25 ft | 24 kts | 41° |
| 2026-05-06 10:29 | 55.60711 | 12.63930 | 24 ft | 95 kts | 41° |
| 2026-05-06 10:30 | 55.61352 | 12.64922 | 22 ft | 147 kts | 41° |
| 2026-05-06 10:30 | 55.62172 | 12.66199 | 453 ft | 158 kts | 41° |
| 2026-05-06 10:30 | 55.63000 | 12.67490 | 1220 ft | 159 kts | 40° |
| 2026-05-06 10:30 | 55.63872 | 12.68845 | 1823 ft | 177 kts | 41° |
| 2026-05-06 10:31 | 55.64853 | 12.70369 | 2205 ft | 199 kts | 41° |
| 2026-05-06 10:31 | 55.65951 | 12.72045 | 2609 ft | 219 kts | 41° |
| 2026-05-06 10:31 | 55.67169 | 12.73864 | 3106 ft | 240 kts | 40° |
| 2026-05-06 10:31 | 55.68481 | 12.75819 | 3828 ft | 251 kts | 42° |
| 2026-05-06 10:32 | 55.69557 | 12.78282 | 4713 ft | 257 kts | 64° |
| 2026-05-06 10:32 | 55.69988 | 12.81382 | 5565 ft | 265 kts | 88° |
| 2026-05-06 10:32 | 55.69639 | 12.84621 | 6399 ft | 274 kts | 114° |
| 2026-05-06 10:32 | 55.68478 | 12.87317 | 7170 ft | 280 kts | 143° |
| 2026-05-06 10:33 | 55.66772 | 12.88881 | 7966 ft | 283 kts | 161° |
| 2026-05-06 10:33 | 55.64898 | 12.90136 | 8833 ft | 286 kts | 162° |
| 2026-05-06 10:33 | 55.63050 | 12.91361 | 9722 ft | 289 kts | 162° |
| 2026-05-06 10:33 | 55.61134 | 12.92634 | 10317 ft | 303 kts | 162° |
| 2026-05-06 10:34 | 55.59086 | 12.93994 | 10600 ft | 325 kts | 162° |
| 2026-05-06 10:34 | 55.56941 | 12.95424 | 11211 ft | 334 kts | 162° |
| 2026-05-06 10:34 | 55.54752 | 12.96893 | 11966 ft | 338 kts | 162° |
| 2026-05-06 10:34 | 55.52540 | 12.98384 | 12732 ft | 342 kts | 162° |
| 2026-05-06 10:35 | 55.50302 | 12.99897 | 13492 ft | 346 kts | 162° |
| 2026-05-06 10:35 | 55.48048 | 13.01418 | 14172 ft | 349 kts | 162° |
| 2026-05-06 10:35 | 55.45767 | 13.02946 | 14829 ft | 352 kts | 162° |
| 2026-05-06 10:35 | 55.43468 | 13.04482 | 15491 ft | 355 kts | 163° |
| 2026-05-06 10:36 | 55.41144 | 13.06036 | 16143 ft | 359 kts | 163° |
| 2026-05-06 10:36 | 55.38799 | 13.07602 | 16789 ft | 362 kts | 163° |
| 2026-05-06 10:36 | 55.36432 | 13.09178 | 17443 ft | 366 kts | 163° |
| 2026-05-06 10:36 | 55.34039 | 13.10767 | 18084 ft | 369 kts | 163° |
| 2026-05-06 10:37 | 55.31628 | 13.12368 | 18655 ft | 372 kts | 163° |
| 2026-05-06 10:37 | 55.29198 | 13.13976 | 19235 ft | 374 kts | 163° |
| 2026-05-06 10:37 | 55.26757 | 13.15586 | 19809 ft | 375 kts | 164° |
| 2026-05-06 10:37 | 55.24239 | 13.16623 | 20363 ft | 371 kts | 179° |
| 2026-05-06 10:38 | 55.21666 | 13.16946 | 20936 ft | 372 kts | 180° |
| 2026-05-06 10:38 | 55.19077 | 13.17246 | 21493 ft | 373 kts | 180° |
| 2026-05-06 10:38 | 55.16479 | 13.17533 | 22044 ft | 375 kts | 180° |
| 2026-05-06 10:38 | 55.13868 | 13.17818 | 22584 ft | 377 kts | 180° |
| 2026-05-06 10:39 | 55.11246 | 13.18111 | 23112 ft | 379 kts | 180° |
| 2026-05-06 10:39 | 55.08604 | 13.18408 | 23607 ft | 381 kts | 180° |
| 2026-05-06 10:39 | 55.05946 | 13.18707 | 24029 ft | 383 kts | 180° |
| 2026-05-06 10:39 | 55.03278 | 13.19004 | 24440 ft | 386 kts | 180° |
| 2026-05-06 10:40 | 55.00592 | 13.19304 | 24844 ft | 388 kts | 180° |
| 2026-05-06 10:40 | 54.97888 | 13.19607 | 25241 ft | 390 kts | 180° |
| 2026-05-06 10:40 | 54.95169 | 13.19910 | 25630 ft | 393 kts | 179° |
| 2026-05-06 10:40 | 54.92438 | 13.20213 | 26015 ft | 395 kts | 179° |
| 2026-05-06 10:41 | 54.89684 | 13.20524 | 26396 ft | 397 kts | 179° |
| 2026-05-06 10:41 | 54.86922 | 13.20838 | 26775 ft | 400 kts | 179° |
| 2026-05-06 10:41 | 54.84135 | 13.21152 | 27139 ft | 402 kts | 179° |
| 2026-05-06 10:41 | 54.81336 | 13.21461 | 27504 ft | 405 kts | 179° |
| 2026-05-06 10:42 | 54.78515 | 13.21772 | 27868 ft | 407 kts | 179° |
| 2026-05-06 10:42 | 54.75680 | 13.22084 | 28215 ft | 409 kts | 179° |
| 2026-05-06 10:42 | 54.72832 | 13.22400 | 28576 ft | 412 kts | 179° |
| 2026-05-06 10:42 | 54.69968 | 13.22714 | 28930 ft | 414 kts | 179° |
| 2026-05-06 10:43 | 54.67082 | 13.23028 | 29275 ft | 416 kts | 179° |
| 2026-05-06 10:43 | 54.64185 | 13.23347 | 29607 ft | 419 kts | 179° |
| 2026-05-06 10:43 | 54.61267 | 13.23673 | 29935 ft | 421 kts | 179° |
| 2026-05-06 10:44 | 54.55394 | 13.24321 | 30474 ft | 425 kts | 179° |
| 2026-05-06 10:44 | 54.52439 | 13.24648 | 30743 ft | 427 kts | 179° |
| 2026-05-06 10:44 | 54.49468 | 13.24978 | 31012 ft | 429 kts | 179° |
| 2026-05-06 10:44 | 54.46485 | 13.25303 | 31272 ft | 430 kts | 179° |
| 2026-05-06 10:45 | 54.43499 | 13.25625 | 31625 ft | 429 kts | 179° |
| 2026-05-06 10:45 | 54.40517 | 13.25949 | 32014 ft | 428 kts | 179° |
| 2026-05-06 10:45 | 54.37547 | 13.26275 | 32394 ft | 427 kts | 179° |
| 2026-05-06 10:45 | 54.34587 | 13.26602 | 32764 ft | 426 kts | 179° |
| 2026-05-06 10:46 | 54.31628 | 13.26927 | 33126 ft | 426 kts | 179° |
| 2026-05-06 10:46 | 54.29670 | 13.27138 | 33362 ft | 425 kts | 179° |
| 2026-05-06 10:46 | 54.25727 | 13.27565 | 33865 ft | 424 kts | 180° |
| 2026-05-06 10:46 | 54.22788 | 13.27881 | 34166 ft | 423 kts | 180° |
| 2026-05-06 10:47 | 54.19848 | 13.28196 | 34447 ft | 423 kts | 180° |
| 2026-05-06 10:47 | 54.16909 | 13.28513 | 34718 ft | 423 kts | 180° |
| 2026-05-06 10:47 | 54.13970 | 13.28833 | 34963 ft | 423 kts | 180° |
| 2026-05-06 10:47 | 54.11028 | 13.29153 | 35216 ft | 423 kts | 180° |
| 2026-05-06 10:48 | 54.08124 | 13.29466 | 35451 ft | 424 kts | 180° |
| 2026-05-06 10:48 | 54.05185 | 13.29779 | 35686 ft | 424 kts | 180° |
| 2026-05-06 10:48 | 54.02201 | 13.30094 | 35833 ft | 424 kts | 180° |
| 2026-05-06 10:49 | 53.96393 | 13.30716 | 35860 ft | 419 kts | 180° |
| 2026-05-06 10:49 | 53.90583 | 13.31332 | 35857 ft | 418 kts | 180° |
| 2026-05-06 10:50 | 53.84774 | 13.31948 | 35858 ft | 418 kts | 180° |
| 2026-05-06 10:50 | 53.78967 | 13.32557 | 35852 ft | 418 kts | 180° |
| 2026-05-06 10:51 | 53.73160 | 13.33173 | 35844 ft | 418 kts | 180° |
| 2026-05-06 10:51 | 53.68292 | 13.33692 | 35843 ft | 418 kts | 180° |
| 2026-05-06 10:52 | 53.61541 | 13.34393 | 35834 ft | 418 kts | 181° |
| 2026-05-06 10:52 | 53.55724 | 13.35002 | 35829 ft | 419 kts | 181° |
| 2026-05-06 10:53 | 53.49914 | 13.35614 | 35828 ft | 419 kts | 181° |
| 2026-05-06 10:53 | 53.44093 | 13.36222 | 35828 ft | 419 kts | 181° |
| 2026-05-06 10:54 | 53.38271 | 13.36823 | 35821 ft | 419 kts | 181° |
| 2026-05-06 10:54 | 53.32451 | 13.37423 | 35822 ft | 419 kts | 181° |
| 2026-05-06 10:55 | 53.27570 | 13.37930 | 35816 ft | 419 kts | 181° |
| 2026-05-06 10:55 | 53.20805 | 13.38617 | 35817 ft | 419 kts | 181° |
| 2026-05-06 10:56 | 53.14976 | 13.39210 | 35814 ft | 419 kts | 181° |
| 2026-05-06 10:56 | 53.09153 | 13.39818 | 35813 ft | 420 kts | 181° |
| 2026-05-06 10:57 | 53.03320 | 13.40422 | 35824 ft | 419 kts | 181° |
| 2026-05-06 10:57 | 52.97429 | 13.41018 | 35808 ft | 430 kts | 181° |
| 2026-05-06 10:58 | 52.91407 | 13.41620 | 35812 ft | 439 kts | 181° |
| 2026-05-06 10:58 | 52.85290 | 13.42245 | 35810 ft | 441 kts | 181° |
| 2026-05-06 10:59 | 52.80196 | 13.42767 | 35808 ft | 442 kts | 181° |
| 2026-05-06 10:59 | 52.73016 | 13.43493 | 35798 ft | 442 kts | 181° |
| 2026-05-06 11:00 | 52.67921 | 13.43997 | 35803 ft | 442 kts | 182° |
| 2026-05-06 11:00 | 52.61779 | 13.44610 | 35799 ft | 442 kts | 181° |
| 2026-05-06 11:01 | 52.55631 | 13.45235 | 35801 ft | 443 kts | 181° |
| 2026-05-06 11:01 | 52.49478 | 13.45851 | 35806 ft | 443 kts | 181° |
| 2026-05-06 11:02 | 52.43315 | 13.46464 | 35802 ft | 444 kts | 181° |
| 2026-05-06 11:02 | 52.37146 | 13.47079 | 35804 ft | 444 kts | 182° |
| 2026-05-06 11:03 | 52.31047 | 13.47669 | 35804 ft | 445 kts | 182° |
| 2026-05-06 11:03 | 52.24833 | 13.48278 | 35802 ft | 445 kts | 182° |
| 2026-05-06 11:04 | 52.18646 | 13.48899 | 35802 ft | 445 kts | 182° |
| 2026-05-06 11:04 | 52.12456 | 13.49515 | 35809 ft | 446 kts | 182° |
| 2026-05-06 11:05 | 52.06265 | 13.50129 | 35786 ft | 446 kts | 182° |
| 2026-05-06 11:05 | 52.00074 | 13.50722 | 35788 ft | 446 kts | 182° |
| 2026-05-06 11:06 | 51.93925 | 13.51307 | 35799 ft | 446 kts | 182° |
| 2026-05-06 11:06 | 51.87810 | 13.50980 | 35795 ft | 434 kts | 198° |
| 2026-05-06 11:07 | 51.81930 | 13.48729 | 35796 ft | 434 kts | 198° |
| 2026-05-06 11:07 | 51.76020 | 13.46432 | 35793 ft | 434 kts | 198° |
| 2026-05-06 11:08 | 51.70146 | 13.44170 | 35795 ft | 434 kts | 198° |
| 2026-05-06 11:08 | 51.64272 | 13.41916 | 35800 ft | 434 kts | 197° |
| 2026-05-06 11:09 | 51.58402 | 13.39665 | 35803 ft | 433 kts | 197° |
| 2026-05-06 11:09 | 51.52568 | 13.37434 | 35803 ft | 433 kts | 197° |
| 2026-05-06 11:10 | 51.46709 | 13.35193 | 35803 ft | 433 kts | 197° |
| 2026-05-06 11:10 | 51.40852 | 13.32963 | 35803 ft | 432 kts | 197° |
| 2026-05-06 11:11 | 51.34998 | 13.30745 | 35803 ft | 432 kts | 197° |
| 2026-05-06 11:11 | 51.29147 | 13.28537 | 35801 ft | 432 kts | 197° |
| 2026-05-06 11:12 | 51.23307 | 13.26332 | 35802 ft | 431 kts | 197° |
| 2026-05-06 11:12 | 51.17463 | 13.24122 | 35801 ft | 431 kts | 197° |
| 2026-05-06 11:13 | 51.11623 | 13.21929 | 35799 ft | 431 kts | 197° |
| 2026-05-06 11:13 | 51.05752 | 13.19734 | 35793 ft | 431 kts | 197° |
| 2026-05-06 11:14 | 50.99953 | 13.17564 | 35799 ft | 431 kts | 197° |
| 2026-05-06 11:14 | 50.94124 | 13.15390 | 35796 ft | 430 kts | 197° |
| 2026-05-06 11:15 | 50.88297 | 13.13228 | 35795 ft | 430 kts | 197° |
| 2026-05-06 11:15 | 50.82472 | 13.11069 | 35794 ft | 430 kts | 197° |
| 2026-05-06 11:16 | 50.76653 | 13.08913 | 35798 ft | 430 kts | 197° |
| 2026-05-06 11:16 | 50.70835 | 13.06765 | 35795 ft | 429 kts | 197° |
| 2026-05-06 11:17 | 50.65016 | 13.04629 | 35795 ft | 429 kts | 197° |
| 2026-05-06 11:17 | 50.59201 | 13.02500 | 35795 ft | 429 kts | 197° |
| 2026-05-06 11:18 | 50.53386 | 13.00369 | 35806 ft | 429 kts | 197° |
| 2026-05-06 11:18 | 50.47573 | 12.98243 | 35814 ft | 429 kts | 196° |
| 2026-05-06 11:19 | 50.41761 | 12.96123 | 35828 ft | 429 kts | 197° |
| 2026-05-06 11:19 | 50.35947 | 12.94006 | 35836 ft | 429 kts | 196° |
| 2026-05-06 11:20 | 50.30131 | 12.91901 | 35852 ft | 429 kts | 196° |
| 2026-05-06 11:20 | 50.24314 | 12.89802 | 35853 ft | 429 kts | 196° |
| 2026-05-06 11:21 | 50.18514 | 12.87712 | 35854 ft | 429 kts | 196° |
| 2026-05-06 11:21 | 50.12700 | 12.85616 | 35854 ft | 428 kts | 196° |
| 2026-05-06 11:22 | 50.06895 | 12.83537 | 35845 ft | 428 kts | 196° |
| 2026-05-06 11:22 | 50.01086 | 12.81461 | 35833 ft | 428 kts | 196° |
| 2026-05-06 11:23 | 49.95275 | 12.79387 | 35826 ft | 428 kts | 196° |
| 2026-05-06 11:23 | 49.89469 | 12.77315 | 35817 ft | 428 kts | 196° |
| 2026-05-06 11:24 | 49.83659 | 12.75250 | 35810 ft | 429 kts | 196° |
| 2026-05-06 11:24 | 49.77838 | 12.73191 | 35809 ft | 429 kts | 196° |
| 2026-05-06 11:25 | 49.72030 | 12.71146 | 35815 ft | 429 kts | 195° |
| 2026-05-06 11:25 | 49.66208 | 12.69092 | 35814 ft | 429 kts | 196° |
| 2026-05-06 11:26 | 49.60405 | 12.67043 | 35815 ft | 428 kts | 195° |
| 2026-05-06 11:26 | 49.54586 | 12.64996 | 35822 ft | 428 kts | 195° |
| 2026-05-06 11:27 | 49.48818 | 12.62978 | 35819 ft | 428 kts | 195° |
| 2026-05-06 11:27 | 49.43009 | 12.60951 | 35818 ft | 428 kts | 195° |
| 2026-05-06 11:28 | 49.37204 | 12.58938 | 35823 ft | 427 kts | 195° |
| 2026-05-06 11:28 | 49.31402 | 12.56925 | 35820 ft | 427 kts | 195° |
| 2026-05-06 11:29 | 49.25611 | 12.54914 | 35821 ft | 427 kts | 195° |
| 2026-05-06 11:29 | 49.19817 | 12.52907 | 35824 ft | 427 kts | 195° |
| 2026-05-06 11:30 | 49.14024 | 12.50908 | 35827 ft | 427 kts | 195° |
| 2026-05-06 11:30 | 49.08236 | 12.48914 | 35825 ft | 426 kts | 195° |
| 2026-05-06 11:31 | 49.02449 | 12.46931 | 35828 ft | 426 kts | 195° |
| 2026-05-06 11:31 | 48.96662 | 12.44953 | 35827 ft | 426 kts | 195° |
| 2026-05-06 11:32 | 48.90883 | 12.42979 | 35836 ft | 425 kts | 195° |
| 2026-05-06 11:32 | 48.85135 | 12.41017 | 35840 ft | 423 kts | 195° |
| 2026-05-06 11:33 | 48.79413 | 12.39067 | 35842 ft | 421 kts | 195° |
| 2026-05-06 11:33 | 48.73747 | 12.36953 | 35833 ft | 417 kts | 204° |
| 2026-05-06 11:33 | 48.71239 | 12.34826 | 35834 ft | 412 kts | 219° |
| 2026-05-06 11:34 | 48.69035 | 12.32050 | 35747 ft | 414 kts | 221° |
| 2026-05-06 11:34 | 48.67578 | 12.30173 | 35570 ft | 415 kts | 221° |
| 2026-05-06 11:34 | 48.64642 | 12.26369 | 35233 ft | 416 kts | 221° |
| 2026-05-06 11:34 | 48.62444 | 12.23524 | 34988 ft | 416 kts | 221° |
| 2026-05-06 11:35 | 48.60250 | 12.20695 | 34739 ft | 415 kts | 221° |
| 2026-05-06 11:35 | 48.58050 | 12.17866 | 34495 ft | 415 kts | 220° |
| 2026-05-06 11:35 | 48.55849 | 12.15044 | 34068 ft | 415 kts | 220° |
| 2026-05-06 11:35 | 48.53654 | 12.12232 | 33606 ft | 414 kts | 220° |
| 2026-05-06 11:36 | 48.51459 | 12.09420 | 33061 ft | 414 kts | 220° |
| 2026-05-06 11:36 | 48.49266 | 12.06612 | 32449 ft | 414 kts | 220° |
| 2026-05-06 11:36 | 48.47060 | 12.03795 | 31815 ft | 416 kts | 220° |
| 2026-05-06 11:36 | 48.44851 | 12.00984 | 31332 ft | 416 kts | 220° |
| 2026-05-06 11:37 | 48.42653 | 11.98187 | 30730 ft | 410 kts | 220° |
| 2026-05-06 11:37 | 48.40488 | 11.95434 | 30147 ft | 407 kts | 220° |
| 2026-05-06 11:37 | 48.38317 | 11.92680 | 29501 ft | 408 kts | 220° |
| 2026-05-06 11:37 | 48.36878 | 11.90857 | 29050 ft | 409 kts | 220° |
| 2026-05-06 11:38 | 48.33967 | 11.87166 | 28162 ft | 413 kts | 220° |
| 2026-05-06 11:38 | 48.31758 | 11.84368 | 27510 ft | 414 kts | 220° |
| 2026-05-06 11:38 | 48.29579 | 11.81615 | 26869 ft | 414 kts | 219° |
| 2026-05-06 11:38 | 48.27402 | 11.78866 | 26057 ft | 410 kts | 219° |
| 2026-05-06 11:39 | 48.25230 | 11.76126 | 25292 ft | 407 kts | 219° |
| 2026-05-06 11:39 | 48.23062 | 11.73393 | 24847 ft | 408 kts | 219° |
| 2026-05-06 11:39 | 48.21624 | 11.71579 | 24560 ft | 408 kts | 219° |
| 2026-05-06 11:39 | 48.18725 | 11.67923 | 23985 ft | 406 kts | 219° |
| 2026-05-06 11:40 | 48.16561 | 11.65203 | 23572 ft | 405 kts | 219° |
| 2026-05-06 11:40 | 48.14403 | 11.62503 | 23115 ft | 404 kts | 218° |
| 2026-05-06 11:40 | 48.12282 | 11.59847 | 22645 ft | 402 kts | 219° |
| 2026-05-06 11:40 | 48.10120 | 11.57138 | 22157 ft | 399 kts | 219° |
| 2026-05-06 11:41 | 48.08026 | 11.54519 | 21683 ft | 397 kts | 219° |
| 2026-05-06 11:41 | 48.05916 | 11.51880 | 21214 ft | 394 kts | 219° |
| 2026-05-06 11:41 | 48.03792 | 11.49232 | 20744 ft | 391 kts | 218° |
| 2026-05-06 11:41 | 48.01706 | 11.46638 | 20293 ft | 389 kts | 218° |
| 2026-05-06 11:42 | 47.99642 | 11.44073 | 19837 ft | 382 kts | 218° |
| 2026-05-06 11:42 | 47.97627 | 11.41566 | 19402 ft | 374 kts | 218° |
| 2026-05-06 11:42 | 47.95648 | 11.39106 | 18975 ft | 366 kts | 218° |
| 2026-05-06 11:42 | 47.93748 | 11.36745 | 18712 ft | 354 kts | 218° |
| 2026-05-06 11:43 | 47.92487 | 11.35180 | 18586 ft | 347 kts | 218° |
| 2026-05-06 11:43 | 47.90637 | 11.32887 | 18396 ft | 344 kts | 218° |
| 2026-05-06 11:43 | 47.88203 | 11.29878 | 18142 ft | 343 kts | 218° |
| 2026-05-06 11:44 | 47.84540 | 11.25358 | 17722 ft | 341 kts | 218° |
| 2026-05-06 11:44 | 47.82719 | 11.23109 | 17505 ft | 340 kts | 218° |
| 2026-05-06 11:44 | 47.80899 | 11.20863 | 17292 ft | 339 kts | 218° |
| 2026-05-06 11:44 | 47.79671 | 11.19349 | 17149 ft | 339 kts | 218° |
| 2026-05-06 11:45 | 47.77863 | 11.17122 | 16937 ft | 338 kts | 218° |
| 2026-05-06 11:45 | 47.76054 | 11.14897 | 16729 ft | 337 kts | 218° |
| 2026-05-06 11:45 | 47.75570 | 11.14302 | 16672 ft | 337 kts | 218° |
| 2026-05-06 11:45 | 47.74278 | 11.12714 | 16523 ft | 336 kts | 218° |
| 2026-05-06 11:46 | 47.72477 | 11.10503 | 16316 ft | 335 kts | 218° |
| 2026-05-06 11:46 | 47.70703 | 11.08330 | 16068 ft | 334 kts | 218° |
| 2026-05-06 11:46 | 47.68892 | 11.06111 | 15808 ft | 333 kts | 218° |
| 2026-05-06 11:46 | 47.67106 | 11.03924 | 15557 ft | 332 kts | 218° |
| 2026-05-06 11:47 | 47.65354 | 11.01780 | 15310 ft | 329 kts | 218° |
| 2026-05-06 11:47 | 47.63612 | 10.99653 | 15072 ft | 319 kts | 219° |
| 2026-05-06 11:47 | 47.61929 | 10.97602 | 14909 ft | 308 kts | 218° |
| 2026-05-06 11:47 | 47.60302 | 10.95617 | 14774 ft | 298 kts | 218° |
| 2026-05-06 11:48 | 47.58725 | 10.93692 | 14621 ft | 288 kts | 218° |
| 2026-05-06 11:48 | 47.57205 | 10.91838 | 14477 ft | 279 kts | 218° |
| 2026-05-06 11:48 | 47.55726 | 10.90035 | 14357 ft | 270 kts | 218° |
| 2026-05-06 11:48 | 47.54299 | 10.88299 | 14252 ft | 262 kts | 218° |
| 2026-05-06 11:49 | 47.52913 | 10.86612 | 14145 ft | 255 kts | 218° |
| 2026-05-06 11:49 | 47.51567 | 10.84977 | 14052 ft | 245 kts | 218° |
| 2026-05-06 11:49 | 47.50266 | 10.83398 | 13954 ft | 237 kts | 218° |
| 2026-05-06 11:49 | 47.49025 | 10.81898 | 13845 ft | 226 kts | 217° |
| 2026-05-06 11:50 | 47.47836 | 10.80461 | 13759 ft | 217 kts | 218° |
| 2026-05-06 11:50 | 47.46674 | 10.79058 | 13663 ft | 214 kts | 218° |
| 2026-05-06 11:50 | 47.45522 | 10.77669 | 13563 ft | 214 kts | 217° |
| 2026-05-06 11:50 | 47.44370 | 10.76278 | 13459 ft | 215 kts | 217° |
| 2026-05-06 11:51 | 47.43216 | 10.74883 | 13336 ft | 213 kts | 216° |
| 2026-05-06 11:51 | 47.42060 | 10.73483 | 13257 ft | 217 kts | 218° |
| 2026-05-06 11:51 | 47.40898 | 10.72080 | 13151 ft | 214 kts | 217° |
| 2026-05-06 11:51 | 47.39751 | 10.70699 | 13043 ft | 209 kts | 217° |
| 2026-05-06 11:52 | 47.38673 | 10.69397 | 12997 ft | 193 kts | 217° |
| 2026-05-06 11:52 | 47.37649 | 10.68161 | 12995 ft | 190 kts | 217° |
| 2026-05-06 11:52 | 47.36624 | 10.66925 | 12994 ft | 189 kts | 217° |
| 2026-05-06 11:52 | 47.35605 | 10.65701 | 12991 ft | 189 kts | 217° |
| 2026-05-06 11:53 | 47.34489 | 10.64723 | 12986 ft | 188 kts | 200° |
| 2026-05-06 11:53 | 47.33213 | 10.64269 | 12983 ft | 190 kts | 196° |
| 2026-05-06 11:53 | 47.31950 | 10.63712 | 12986 ft | 190 kts | 192° |
| 2026-05-06 11:53 | 47.30635 | 10.63891 | 12991 ft | 195 kts | 165° |
| 2026-05-06 11:54 | 47.29503 | 10.65054 | 12781 ft | 210 kts | 134° |
| 2026-05-06 11:54 | 47.29045 | 10.67176 | 12519 ft | 231 kts | 96° |
| 2026-05-06 11:54 | 47.29140 | 10.69538 | 12231 ft | 231 kts | 92° |
| 2026-05-06 11:54 | 47.29273 | 10.71898 | 11949 ft | 231 kts | 91° |
| 2026-05-06 11:55 | 47.29408 | 10.74242 | 11660 ft | 228 kts | 91° |
| 2026-05-06 11:55 | 47.29539 | 10.76571 | 11349 ft | 229 kts | 91° |
| 2026-05-06 11:55 | 47.29667 | 10.78893 | 11070 ft | 225 kts | 91° |
| 2026-05-06 11:55 | 47.29788 | 10.81170 | 10765 ft | 222 kts | 91° |
| 2026-05-06 11:56 | 47.29903 | 10.83418 | 10472 ft | 219 kts | 91° |
| 2026-05-06 11:56 | 47.30015 | 10.85651 | 10176 ft | 217 kts | 91° |
| 2026-05-06 11:56 | 47.30126 | 10.87856 | 9889 ft | 214 kts | 90° |
| 2026-05-06 11:56 | 47.30234 | 10.90036 | 9563 ft | 214 kts | 90° |
| 2026-05-06 11:57 | 47.30343 | 10.92218 | 9196 ft | 213 kts | 91° |
| 2026-05-06 11:57 | 47.30449 | 10.94376 | 8832 ft | 210 kts | 90° |
| 2026-05-06 11:57 | 47.30551 | 10.96494 | 8469 ft | 205 kts | 90° |
| 2026-05-06 11:57 | 47.30649 | 10.98549 | 8126 ft | 205 kts | 89° |
| 2026-05-06 11:58 | 47.30750 | 11.00654 | 7761 ft | 198 kts | 89° |
| 2026-05-06 11:58 | 47.30844 | 11.02636 | 7411 ft | 190 kts | 89° |
| 2026-05-06 11:58 | 47.30935 | 11.04517 | 7071 ft | 184 kts | 89° |
| 2026-05-06 11:58 | 47.30972 | 11.06371 | 6730 ft | 179 kts | 97° |
| 2026-05-06 11:59 | 47.30714 | 11.08137 | 6388 ft | 175 kts | 111° |
| 2026-05-06 11:59 | 47.30228 | 11.09764 | 6041 ft | 172 kts | 116° |
| 2026-05-06 11:59 | 47.29709 | 11.11342 | 5680 ft | 168 kts | 116° |
| 2026-05-06 11:59 | 47.29206 | 11.12852 | 5379 ft | 162 kts | 115° |
| 2026-05-06 12:00 | 47.28715 | 11.14325 | 5106 ft | 159 kts | 116° |
| 2026-05-06 12:00 | 47.28233 | 11.15768 | 4890 ft | 155 kts | 116° |
| 2026-05-06 12:00 | 47.27764 | 11.17178 | 4662 ft | 153 kts | 117° |
| 2026-05-06 12:00 | 47.27292 | 11.18596 | 4437 ft | 155 kts | 117° |
| 2026-05-06 12:01 | 47.26818 | 11.20029 | 4180 ft | 156 kts | 117° |
| 2026-05-06 12:01 | 47.26349 | 11.21448 | 3929 ft | 154 kts | 117° |
| 2026-05-06 12:01 | 47.25882 | 11.22863 | 3704 ft | 154 kts | 116° |
| 2026-05-06 12:01 | 47.25425 | 11.24309 | 3431 ft | 157 kts | 112° |
| 2026-05-06 12:02 | 47.25191 | 11.25879 | 3141 ft | 157 kts | 94° |
| 2026-05-06 12:02 | 47.25252 | 11.27461 | 2902 ft | 154 kts | 83° |
| 2026-05-06 12:02 | 47.25449 | 11.29007 | 2698 ft | 154 kts | 82° |
| 2026-05-06 12:02 | 47.25622 | 11.30564 | 2426 ft | 154 kts | 84° |
| 2026-05-06 12:03 | 47.25784 | 11.32107 | 2152 ft | 151 kts | 84° |
| 2026-05-06 12:03 | 47.25938 | 11.33621 | 1919 ft | 146 kts | 82° |
| 2026-05-06 12:03 | 47.26060 | 11.34916 | 1910 ft | 118 kts | 86° |
| 2026-05-06 12:03 | 47.26179 | 11.36323 | 2334 ft | 151 kts | 85° |
| 2026-05-06 12:04 | 47.26348 | 11.37907 | 3233 ft | 163 kts | 82° |
| 2026-05-06 12:04 | 47.26553 | 11.39575 | 3683 ft | 183 kts | 82° |
| 2026-05-06 12:04 | 47.26793 | 11.41530 | 4008 ft | 206 kts | 82° |
| 2026-05-06 12:04 | 47.27065 | 11.43708 | 4424 ft | 222 kts | 82° |
| 2026-05-06 12:05 | 47.27371 | 11.45943 | 5291 ft | 221 kts | 82° |
| 2026-05-06 12:05 | 47.27772 | 11.48136 | 6211 ft | 228 kts | 71° |
| 2026-05-06 12:05 | 47.28413 | 11.50316 | 6933 ft | 236 kts | 69° |
| 2026-05-06 12:05 | 47.29122 | 11.52543 | 7711 ft | 243 kts | 69° |
| 2026-05-06 12:06 | 47.29836 | 11.54814 | 8508 ft | 248 kts | 70° |
| 2026-05-06 12:06 | 47.30549 | 11.57159 | 9330 ft | 253 kts | 71° |
| 2026-05-06 12:06 | 47.31257 | 11.59564 | 10112 ft | 258 kts | 72° |
| 2026-05-06 12:06 | 47.31963 | 11.62021 | 10838 ft | 263 kts | 73° |
| 2026-05-06 12:07 | 47.32670 | 11.64531 | 11582 ft | 267 kts | 73° |
| 2026-05-06 12:07 | 47.33614 | 11.66942 | 12325 ft | 280 kts | 50° |
| 2026-05-06 12:07 | 47.35222 | 11.68639 | 12953 ft | 297 kts | 21° |
| 2026-05-06 12:07 | 47.37298 | 11.69049 | 13276 ft | 312 kts | 347° |
| 2026-05-06 12:08 | 47.39313 | 11.67856 | 13598 ft | 316 kts | 314° |
| 2026-05-06 12:08 | 47.40660 | 11.65399 | 14161 ft | 305 kts | 285° |
| 2026-05-06 12:08 | 47.41089 | 11.62425 | 14622 ft | 292 kts | 260° |
| 2026-05-06 12:08 | 47.41029 | 11.61412 | 14692 ft | 296 kts | 255° |
| 2026-05-06 12:09 | 47.40408 | 11.56053 | 14779 ft | 339 kts | 254° |
| 2026-05-06 12:09 | 47.39981 | 11.52580 | 14781 ft | 347 kts | 255° |
| 2026-05-06 12:09 | 47.39562 | 11.49062 | 14777 ft | 348 kts | 255° |
| 2026-05-06 12:09 | 47.39154 | 11.45542 | 14783 ft | 348 kts | 255° |
| 2026-05-06 12:10 | 47.38749 | 11.42015 | 14780 ft | 350 kts | 255° |
| 2026-05-06 12:10 | 47.38343 | 11.38473 | 14779 ft | 350 kts | 255° |
| 2026-05-06 12:10 | 47.37937 | 11.34938 | 14782 ft | 350 kts | 255° |
| 2026-05-06 12:10 | 47.37531 | 11.31451 | 14782 ft | 349 kts | 255° |
| 2026-05-06 12:11 | 47.37113 | 11.27890 | 14783 ft | 348 kts | 256° |
| 2026-05-06 12:11 | 47.36700 | 11.24373 | 14783 ft | 349 kts | 255° |
| 2026-05-06 12:11 | 47.36274 | 11.20794 | 14785 ft | 365 kts | 255° |
| 2026-05-06 12:11 | 47.35818 | 11.17014 | 14780 ft | 381 kts | 256° |
| 2026-05-06 12:12 | 47.35364 | 11.13187 | 14778 ft | 385 kts | 257° |
| 2026-05-06 12:12 | 47.35292 | 11.09163 | 14731 ft | 390 kts | 269° |
| 2026-05-06 12:12 | 47.35459 | 11.05248 | 14472 ft | 384 kts | 269° |
| 2026-05-06 12:12 | 47.35643 | 11.01345 | 13949 ft | 381 kts | 269° |
| 2026-05-06 12:13 | 47.35820 | 10.97452 | 13270 ft | 381 kts | 269° |
| 2026-05-06 12:13 | 47.35980 | 10.93543 | 13026 ft | 385 kts | 269° |
| 2026-05-06 12:13 | 47.36150 | 10.89610 | 12988 ft | 385 kts | 269° |
| 2026-05-06 12:13 | 47.36325 | 10.85705 | 12993 ft | 373 kts | 269° |
| 2026-05-06 12:14 | 47.36497 | 10.81984 | 12997 ft | 354 kts | 269° |
| 2026-05-06 12:14 | 47.36667 | 10.78450 | 12989 ft | 336 kts | 269° |
| 2026-05-06 12:14 | 47.36849 | 10.75131 | 13001 ft | 320 kts | 269° |
| 2026-05-06 12:14 | 47.37024 | 10.71925 | 12992 ft | 307 kts | 269° |
| 2026-05-06 12:15 | 47.37206 | 10.68871 | 13003 ft | 292 kts | 269° |
| 2026-05-06 12:15 | 47.37293 | 10.65958 | 12999 ft | 275 kts | 258° |
| 2026-05-06 12:15 | 47.36811 | 10.63353 | 13003 ft | 255 kts | 239° |
| 2026-05-06 12:15 | 47.35820 | 10.61308 | 12991 ft | 237 kts | 222° |
| 2026-05-06 12:16 | 47.34527 | 10.59964 | 12997 ft | 221 kts | 205° |
| 2026-05-06 12:16 | 47.33094 | 10.59257 | 12844 ft | 214 kts | 190° |
| 2026-05-06 12:16 | 47.31662 | 10.59664 | 12720 ft | 217 kts | 152° |
| 2026-05-06 12:16 | 47.30779 | 10.61460 | 12560 ft | 227 kts | 111° |
| 2026-05-06 12:17 | 47.30644 | 10.63794 | 12368 ft | 229 kts | 102° |
| 2026-05-06 12:17 | 47.30123 | 10.65886 | 12063 ft | 212 kts | 131° |
| 2026-05-06 12:17 | 47.29432 | 10.67820 | 11789 ft | 221 kts | 109° |
| 2026-05-06 12:17 | 47.29226 | 10.70084 | 11509 ft | 223 kts | 100° |
| 2026-05-06 12:18 | 47.29228 | 10.72378 | 11226 ft | 224 kts | 92° |
| 2026-05-06 12:18 | 47.29344 | 10.74654 | 10957 ft | 223 kts | 90° |
| 2026-05-06 12:18 | 47.29487 | 10.76929 | 10683 ft | 222 kts | 89° |
| 2026-05-06 12:18 | 47.29628 | 10.79188 | 10442 ft | 221 kts | 89° |
| 2026-05-06 12:19 | 47.29761 | 10.81431 | 10198 ft | 218 kts | 90° |
| 2026-05-06 12:19 | 47.29886 | 10.83647 | 9956 ft | 217 kts | 90° |
| 2026-05-06 12:19 | 47.30006 | 10.85852 | 9717 ft | 214 kts | 90° |
| 2026-05-06 12:19 | 47.30121 | 10.88029 | 9448 ft | 213 kts | 90° |
| 2026-05-06 12:20 | 47.30232 | 10.90214 | 9193 ft | 214 kts | 91° |
| 2026-05-06 12:20 | 47.30340 | 10.92388 | 8936 ft | 212 kts | 90° |
| 2026-05-06 12:20 | 47.30445 | 10.94539 | 8675 ft | 210 kts | 90° |
| 2026-05-06 12:20 | 47.30549 | 10.96677 | 8424 ft | 209 kts | 90° |
| 2026-05-06 12:21 | 47.30653 | 10.98811 | 8156 ft | 208 kts | 89° |
| 2026-05-06 12:21 | 47.30756 | 11.00912 | 7890 ft | 205 kts | 89° |
| 2026-05-06 12:21 | 47.30858 | 11.03005 | 7609 ft | 204 kts | 89° |
| 2026-05-06 12:21 | 47.30958 | 11.05089 | 7340 ft | 203 kts | 88° |
| 2026-05-06 12:22 | 47.30899 | 11.07128 | 7056 ft | 196 kts | 103° |
| 2026-05-06 12:22 | 47.30477 | 11.08993 | 6717 ft | 187 kts | 116° |
| 2026-05-06 12:22 | 47.29933 | 11.10704 | 6363 ft | 182 kts | 117° |
| 2026-05-06 12:22 | 47.29386 | 11.12356 | 5971 ft | 177 kts | 116° |
| 2026-05-06 12:23 | 47.28852 | 11.13957 | 5584 ft | 171 kts | 116° |
| 2026-05-06 12:23 | 47.28337 | 11.15498 | 5233 ft | 164 kts | 116° |
| 2026-05-06 12:23 | 47.27842 | 11.16979 | 4923 ft | 160 kts | 116° |
| 2026-05-06 12:23 | 47.27349 | 11.18456 | 4616 ft | 161 kts | 116° |
| 2026-05-06 12:24 | 47.26855 | 11.19940 | 4280 ft | 161 kts | 117° |
| 2026-05-06 12:24 | 47.26372 | 11.21401 | 3948 ft | 157 kts | 117° |
| 2026-05-06 12:24 | 47.26058 | 11.22349 | 3767 ft | 154 kts | 116° |
| 2026-05-06 12:24 | 47.25435 | 11.24212 | 3454 ft | 149 kts | 117° |
| 2026-05-06 12:25 | 47.25141 | 11.25663 | 3228 ft | 151 kts | 96° |
| 2026-05-06 12:25 | 47.25201 | 11.27206 | 2897 ft | 151 kts | 82° |
| 2026-05-06 12:25 | 47.25389 | 11.28695 | 2697 ft | 150 kts | 83° |
| 2026-05-06 12:25 | 47.25567 | 11.30232 | 2476 ft | 150 kts | 84° |
| 2026-05-06 12:26 | 47.25724 | 11.31718 | 2212 ft | 148 kts | 83° |
| 2026-05-06 12:26 | 47.25834 | 11.32722 | 2028 ft | 146 kts | 84° |
| 2026-05-06 12:26 | 47.26031 | 11.34548 | 1908 ft | 120 kts | 83° |
| 2026-05-06 12:26 | 47.26120 | 11.35338 | 1903 ft | 33 kts | 81° |
| 2026-05-06 12:27 | 47.26134 | 11.35533 | 1899 ft | 10 kts | 88° |
| 2026-05-06 12:27 | 47.26115 | 11.35644 | 1895 ft | 10 kts | 111° |
| 2026-05-06 12:27 | 47.26150 | 11.35675 | 1894 ft | 8 kts | 298° |
| 2026-05-06 12:27 | 47.26148 | 11.35576 | 1893 ft | 14 kts | 260° |
| 2026-05-06 12:28 | 47.26136 | 11.35472 | 1898 ft | 15 kts | 259° |
| 2026-05-06 12:28 | 47.26117 | 11.35301 | 1904 ft | 11 kts | 261° |
| 2026-05-06 12:28 | 47.26075 | 11.35253 | 1901 ft | 9 kts | 176° |
| 2026-05-06 12:28 | 47.26028 | 11.35265 | 1901 ft | 11 kts | 169° |
| 2026-05-06 12:29 | 47.25929 | 11.35288 | 1901 ft | 7 kts | 172° |
| 2026-05-06 12:29 | 47.25894 | 11.35244 | 1898 ft | 8 kts | 249° |
| 2026-05-06 12:29 | 47.25888 | 11.35196 | 1901 ft | 6 kts | 247° |
| 2026-05-06 12:29 | 47.25852 | 11.35185 | 1901 ft | 5 kts | 178° |
| 2026-05-06 12:30 | 47.25835 | 11.35187 | 1901 ft | 0 kts | 175° |